createdAt,value
2023-04-25T00:01:34.568Z,4.75
2023-04-25T00:04:02.544Z,4.60
2023-04-25T00:06:31.018Z,5.07
2023-04-25T00:08:58.752Z,4.30
2023-04-25T00:11:27.836Z,4.10
2023-04-25T00:13:55.720Z,5.43
2023-04-25T00:16:24.786Z,3.80
2023-04-25T00:18:54.893Z,5.17
2023-04-25T00:21:23.211Z,3.93
2023-04-25T00:23:51.423Z,4.10
2023-04-25T00:26:19.310Z,4.07
2023-04-25T00:28:48.708Z,4.70
2023-04-25T00:31:16.529Z,4.30
2023-04-25T00:33:44.453Z,4.60
2023-04-25T00:36:12.248Z,5.50
2023-04-25T00:38:40.140Z,5.63
2023-04-25T00:41:09.187Z,5.50
2023-04-25T00:43:38.833Z,4.70
2023-04-25T00:46:08.048Z,4.50
2023-04-25T00:48:35.858Z,5.07
2023-04-25T00:51:03.822Z,5.10
2023-04-25T00:53:33.975Z,4.95
2023-04-25T00:56:01.682Z,6.13
2023-04-25T00:58:29.504Z,4.80
2023-04-25T01:00:59.298Z,4.30
2023-04-25T01:03:29.750Z,5.03
2023-04-25T01:05:58.135Z,4.60
2023-04-25T01:08:27.169Z,4.33
2023-04-25T01:10:54.896Z,4.67
2023-04-25T01:13:22.851Z,5.10
2023-04-25T01:15:50.612Z,5.23
2023-04-25T01:18:18.475Z,5.00
2023-04-25T01:20:48.459Z,4.63
2023-04-25T01:23:17.945Z,4.80
2023-04-25T01:25:46.117Z,5.30
2023-04-25T01:28:14.072Z,5.00
2023-04-25T01:30:42.726Z,5.27
2023-04-25T01:33:10.641Z,5.40
2023-04-25T01:35:38.370Z,5.60
2023-04-25T01:38:06.102Z,5.50
2023-04-25T01:40:36.004Z,6.10
2023-04-25T01:43:03.764Z,6.20
2023-04-25T01:45:31.534Z,5.75
2023-04-25T01:48:00.416Z,7.20
2023-04-25T01:50:28.260Z,5.63
2023-04-25T01:52:56.317Z,6.17
2023-04-25T01:55:24.263Z,5.80
2023-04-25T01:57:53.340Z,5.27
2023-04-25T02:00:21.720Z,5.10
2023-04-25T02:02:51.739Z,5.60
2023-04-25T02:05:19.749Z,6.30
2023-04-25T02:07:47.990Z,4.90
2023-04-25T02:10:15.923Z,5.83
2023-04-25T02:12:43.681Z,6.37
2023-04-25T02:15:12.930Z,5.57
2023-04-25T02:17:40.850Z,5.83
2023-04-25T02:20:09.271Z,5.40
2023-04-25T02:22:37.678Z,5.27
2023-04-25T02:25:06.411Z,5.53
2023-04-25T02:27:34.187Z,6.60
2023-04-25T02:30:02.021Z,5.50
2023-04-25T02:32:31.157Z,6.20
2023-04-25T02:34:59.558Z,6.13
2023-04-25T02:37:27.297Z,5.47
2023-04-25T02:39:55.036Z,5.60
2023-04-25T02:42:22.816Z,5.70
2023-04-25T02:44:50.546Z,5.57
2023-04-25T02:47:18.293Z,5.33
2023-04-25T02:49:47.554Z,5.20
2023-04-25T02:52:15.417Z,6.30
2023-04-25T02:54:43.248Z,6.17
2023-04-25T02:57:11.116Z,5.53
2023-04-25T02:59:38.848Z,4.67
2023-04-25T03:02:06.591Z,4.73
2023-04-25T03:04:35.003Z,5.47
2023-04-25T03:07:04.412Z,4.60
2023-04-25T03:09:32.190Z,5.10
2023-04-25T03:11:59.970Z,5.43
2023-04-25T03:14:27.749Z,5.60
2023-04-25T03:16:55.576Z,6.80
2023-04-25T03:19:23.343Z,6.20
2023-04-25T03:21:51.094Z,5.73
2023-04-25T03:24:20.428Z,6.27
2023-04-25T03:26:48.202Z,5.93
2023-04-25T03:29:15.909Z,5.40
2023-04-25T03:31:43.675Z,6.88
2023-04-25T03:34:11.493Z,6.90
2023-04-25T03:36:41.567Z,6.37
2023-04-25T03:39:09.816Z,5.97
2023-04-25T03:41:38.894Z,5.57
2023-04-25T03:44:06.613Z,5.83
2023-04-25T03:46:34.400Z,5.90
2023-04-25T03:49:02.175Z,6.37
2023-04-25T03:51:30.209Z,5.97
2023-04-25T03:53:57.949Z,6.70
2023-04-25T03:56:25.873Z,6.80
2023-04-25T03:58:55.712Z,6.27
2023-04-25T04:01:23.537Z,6.67
2023-04-25T04:03:51.642Z,7.10
2023-04-25T04:06:21.641Z,6.77
2023-04-25T04:08:49.410Z,7.50
2023-04-25T04:11:17.246Z,7.87
2023-04-25T04:13:44.963Z,7.50
2023-04-25T04:16:14.167Z,7.10
2023-04-25T04:18:41.917Z,7.90
2023-04-25T04:21:09.644Z,7.90
2023-04-25T04:23:47.642Z,8.33
2023-04-25T04:26:16.281Z,7.77
2023-04-25T04:28:44.937Z,6.90
2023-04-25T04:31:16.474Z,7.53
2023-04-25T04:33:45.602Z,8.83
2023-04-25T04:36:13.965Z,7.17
2023-04-25T04:38:43.278Z,7.07
2023-04-25T04:41:11.393Z,5.63
2023-04-25T04:43:40.455Z,5.73
2023-04-25T04:46:08.201Z,5.70
2023-04-25T04:48:37.380Z,5.10
2023-04-25T04:51:05.178Z,5.30
2023-04-25T04:53:33.301Z,5.20
2023-04-25T04:56:01.050Z,5.30
2023-04-25T04:58:30.851Z,5.07
2023-04-25T05:00:58.831Z,5.00
2023-04-25T05:03:26.700Z,5.70
2023-04-25T05:05:55.995Z,6.63
2023-04-25T05:08:23.808Z,6.40
2023-04-25T05:10:51.656Z,4.97
2023-04-25T05:13:19.391Z,5.57
2023-04-25T05:15:47.100Z,5.40
2023-04-25T05:18:15.067Z,5.17
2023-04-25T05:20:43.133Z,5.60
2023-04-25T05:23:12.228Z,4.83
2023-04-25T05:25:39.958Z,5.73
2023-04-25T05:28:07.822Z,5.27
2023-04-25T05:30:36.156Z,5.30
2023-04-25T05:33:03.964Z,6.17
2023-04-25T05:35:31.872Z,5.37
2023-04-25T05:37:59.635Z,5.00
2023-04-25T05:40:28.938Z,5.10
2023-04-25T05:42:56.706Z,5.77
2023-04-25T05:45:24.440Z,4.80
2023-04-25T05:47:52.194Z,4.73
2023-04-25T05:50:20.036Z,4.93
2023-04-25T05:52:47.925Z,4.47
2023-04-25T05:55:16.590Z,4.57
2023-04-25T05:57:46.251Z,4.90
2023-04-25T06:00:16.851Z,6.00
2023-04-25T06:02:44.724Z,6.03
2023-04-25T06:05:12.797Z,6.00
2023-04-25T06:07:40.770Z,5.13
2023-04-25T06:10:10.005Z,4.00
2023-04-25T06:12:38.105Z,4.90
2023-04-25T06:15:20.102Z,5.03
2023-04-25T06:17:54.867Z,4.50
2023-04-25T06:20:24.905Z,4.47
2023-04-25T06:22:53.567Z,5.93
2023-04-25T06:25:21.978Z,5.77
2023-04-25T06:27:49.794Z,4.37
2023-04-25T06:30:23.343Z,5.20
2023-04-25T06:32:51.212Z,5.80
2023-04-25T06:35:19.200Z,5.33
2023-04-25T06:37:47.067Z,4.50
2023-04-25T06:40:15.773Z,4.80
2023-04-25T06:42:43.497Z,4.80
2023-04-25T06:45:12.088Z,3.90
2023-04-25T06:47:41.384Z,4.83
2023-04-25T06:50:09.952Z,4.40
2023-04-25T06:52:37.724Z,4.70
2023-04-25T06:55:06.461Z,5.53
2023-04-25T06:57:34.235Z,4.63
2023-04-25T07:00:02.606Z,4.67
2023-04-25T07:02:30.643Z,4.90
2023-04-25T07:05:00.800Z,5.37
2023-04-25T07:07:28.629Z,4.83
2023-04-25T07:09:56.635Z,4.43
2023-04-25T07:12:24.402Z,5.17
2023-04-25T07:14:52.156Z,5.30
2023-04-25T07:17:19.930Z,4.77
2023-04-25T07:19:47.720Z,6.63
2023-04-25T07:22:16.800Z,5.50
2023-04-25T07:24:48.262Z,5.07
2023-04-25T07:27:16.048Z,4.73
2023-04-25T07:29:43.795Z,5.10
2023-04-25T07:32:13.318Z,4.07
2023-04-25T07:34:42.423Z,4.30
2023-04-25T07:37:10.217Z,5.27
2023-04-25T07:39:39.313Z,3.80
2023-04-25T07:42:08.986Z,6.93
2023-04-25T07:44:39.672Z,4.30
2023-04-25T07:47:08.977Z,3.87
2023-04-25T07:49:37.354Z,4.73
2023-04-25T07:52:06.991Z,3.90
2023-04-25T07:54:34.886Z,5.60
2023-04-25T07:57:11.761Z,3.57
2023-04-25T07:59:39.572Z,4.40
2023-04-25T08:02:07.670Z,4.67
2023-04-25T08:04:35.702Z,3.40
2023-04-25T08:07:03.678Z,4.00
2023-04-25T08:09:35.513Z,3.20
2023-04-25T08:12:04.932Z,2.53
2023-04-25T08:14:36.816Z,3.57
2023-04-25T08:17:05.368Z,2.80
2023-04-25T08:19:33.249Z,3.47
2023-04-25T08:22:00.997Z,3.80
2023-04-25T08:24:28.762Z,2.87
2023-04-25T08:26:56.930Z,3.60
2023-04-25T08:29:26.859Z,3.93
2023-04-25T08:31:54.741Z,3.27
2023-04-25T08:34:22.577Z,5.03
2023-04-25T08:36:50.854Z,3.50
2023-04-25T08:39:18.631Z,4.87
2023-04-25T08:41:46.710Z,3.40
2023-04-25T08:44:15.274Z,3.33
2023-04-25T08:46:47.767Z,4.00
2023-04-25T08:49:16.836Z,3.53
2023-04-25T08:51:48.532Z,4.83
2023-04-25T08:54:30.807Z,3.50
2023-04-25T08:57:04.780Z,3.60
2023-04-25T08:59:34.311Z,3.50
2023-04-25T09:02:04.742Z,3.00
2023-04-25T09:04:32.946Z,2.80
2023-04-25T09:07:00.991Z,3.93
2023-04-25T09:09:28.758Z,3.00
2023-04-25T09:11:56.604Z,3.50
2023-04-25T09:14:26.687Z,2.67
2023-04-25T09:17:02.172Z,2.20
2023-04-25T09:19:40.151Z,2.30
2023-04-25T09:22:09.793Z,3.00
2023-04-25T09:24:39.538Z,2.30
2023-04-25T09:27:11.745Z,2.33
2023-04-25T09:29:41.753Z,2.83
2023-04-25T09:32:18.964Z,2.83
2023-04-25T09:34:52.740Z,2.43
2023-04-25T09:37:22.514Z,2.70
2023-04-25T09:39:51.311Z,2.70
2023-04-25T09:42:19.634Z,2.80
2023-04-25T09:44:48.787Z,2.87
2023-04-25T09:47:18.633Z,2.23
2023-04-25T09:49:47.886Z,2.97
2023-04-25T09:52:17.914Z,2.20
2023-04-25T09:54:46.332Z,2.50
2023-04-25T09:57:16.910Z,1.90
2023-04-25T09:59:49.018Z,2.77
2023-04-25T10:02:20.463Z,2.23
2023-04-25T10:04:53.682Z,2.30
2023-04-25T10:07:24.099Z,1.90
2023-04-25T10:09:54.347Z,2.40
2023-04-25T10:12:22.218Z,3.03
2023-04-25T10:14:50.061Z,1.83
2023-04-25T10:17:18.638Z,2.87
2023-04-25T10:19:46.938Z,2.47
2023-04-25T10:22:21.996Z,1.90
2023-04-25T10:24:50.696Z,2.00
2023-04-25T10:27:19.182Z,2.53
2023-04-25T10:29:46.936Z,2.13
2023-04-25T10:32:15.627Z,2.07
2023-04-25T10:34:47.787Z,1.90
2023-04-25T10:37:21.099Z,2.80
2023-04-25T10:39:49.175Z,2.20
2023-04-25T10:42:16.875Z,1.63
2023-04-25T10:45:03.824Z,2.40
2023-04-25T10:47:37.948Z,3.13
2023-04-25T10:50:10.550Z,2.20
2023-04-25T10:52:41.000Z,2.10
2023-04-25T10:55:09.817Z,2.33
2023-04-25T10:57:42.983Z,2.40
2023-04-25T11:00:13.609Z,2.50
2023-04-25T11:02:46.381Z,2.67
2023-04-25T11:05:24.320Z,2.27
2023-04-25T11:08:06.474Z,2.27
2023-04-25T11:10:37.082Z,2.43
2023-04-25T11:13:05.413Z,2.60
2023-04-25T11:15:33.276Z,2.13
2023-04-25T11:18:01.831Z,2.20
2023-04-25T11:20:30.120Z,2.33
2023-04-25T11:25:30.763Z,2.77
2023-04-25T11:28:01.462Z,2.90
2023-04-25T11:30:31.489Z,1.80
2023-04-25T11:32:59.418Z,2.80
2023-04-25T11:35:28.509Z,1.87
2023-04-25T11:37:56.475Z,2.63
2023-04-25T11:40:25.877Z,2.57
2023-04-25T11:42:54.956Z,3.42
2023-04-25T11:45:25.734Z,1.97
2023-04-25T11:47:53.957Z,2.20
2023-04-25T11:50:21.804Z,2.23
2023-04-25T11:52:51.125Z,2.10
2023-04-25T11:55:20.993Z,2.30
2023-04-25T11:57:52.035Z,2.23
2023-04-25T12:00:21.918Z,1.70
2023-04-25T12:02:53.158Z,2.30
2023-04-25T12:05:32.016Z,2.10
2023-04-25T12:08:13.012Z,2.87
2023-04-25T12:10:42.194Z,1.73
2023-04-25T12:13:24.998Z,2.30
2023-04-25T12:15:53.225Z,2.30
2023-04-25T12:18:22.778Z,2.40
2023-04-25T12:20:50.695Z,2.80
2023-04-25T12:23:18.485Z,2.37
2023-04-25T12:25:48.065Z,2.03
2023-04-25T12:28:20.637Z,1.83
2023-04-25T12:30:57.288Z,1.83
2023-04-25T12:33:25.403Z,2.73
2023-04-25T12:35:53.724Z,3.10
2023-04-25T12:38:26.141Z,2.00
2023-04-25T12:40:54.869Z,2.67
2023-04-25T12:43:23.273Z,2.23
2023-04-25T12:45:52.152Z,2.23
2023-04-25T12:48:22.083Z,2.57
2023-04-25T12:50:52.480Z,2.93
2023-04-25T12:53:21.058Z,2.03
2023-04-25T12:55:49.831Z,2.33
2023-04-25T12:58:18.604Z,3.50
2023-04-25T13:00:47.252Z,3.50
2023-04-25T13:03:15.508Z,2.60
2023-04-25T13:05:44.897Z,2.63
2023-04-25T13:08:12.612Z,2.43
2023-04-25T13:10:41.138Z,1.90
2023-04-25T13:13:09.445Z,3.80
2023-04-25T13:15:37.444Z,1.73
2023-04-25T13:18:06.353Z,2.20
2023-04-25T13:20:34.191Z,2.93
2023-04-25T13:23:03.326Z,2.70
2023-04-25T13:25:31.314Z,2.00
2023-04-25T13:27:59.016Z,2.50
2023-04-25T13:30:26.887Z,2.27
2023-04-25T13:32:57.210Z,2.63
2023-04-25T13:35:25.561Z,2.37
2023-04-25T13:37:53.276Z,2.77
2023-04-25T13:40:25.149Z,2.10
2023-04-25T13:42:53.274Z,2.47
2023-04-25T13:45:21.377Z,2.10
2023-04-25T13:47:49.308Z,1.80
2023-04-25T13:50:17.212Z,2.00
2023-04-25T13:52:45.942Z,2.33
2023-04-25T13:55:13.860Z,1.93
2023-04-25T13:57:42.921Z,3.00
2023-04-25T14:00:11.793Z,2.20
2023-04-25T14:02:40.449Z,1.60
2023-04-25T14:05:10.433Z,2.37
2023-04-25T14:07:38.864Z,2.20
2023-04-25T14:10:07.890Z,1.70
2023-04-25T14:12:36.047Z,2.73
2023-04-25T14:15:06.017Z,2.33
2023-04-25T14:17:33.754Z,2.07
2023-04-25T14:20:01.501Z,1.80
2023-04-25T14:22:29.209Z,2.20
2023-04-25T14:24:56.962Z,2.13
2023-04-25T14:27:25.126Z,1.80
2023-04-25T14:29:53.565Z,2.10
2023-04-25T14:32:22.820Z,1.70
2023-04-25T14:34:50.511Z,1.90
2023-04-25T14:37:18.322Z,2.10
2023-04-25T14:39:46.554Z,1.40
2023-04-25T14:42:14.355Z,1.40
2023-04-25T14:44:42.098Z,1.90
2023-04-25T14:47:10.255Z,1.23
2023-04-25T14:49:39.320Z,1.73
2023-04-25T14:52:07.343Z,1.87
2023-04-25T14:54:35.326Z,1.73
2023-04-25T14:57:03.204Z,2.50
2023-04-25T14:59:30.998Z,1.47
2023-04-25T15:01:59.910Z,1.73
2023-04-25T15:04:27.863Z,1.83
2023-04-25T15:06:58.197Z,2.00
2023-04-25T15:09:26.044Z,2.07
2023-04-25T15:11:53.843Z,1.43
2023-04-25T15:14:21.618Z,1.70
2023-04-25T15:16:49.428Z,1.30
2023-04-25T15:19:17.218Z,1.90
2023-04-25T15:21:45.041Z,1.73
2023-04-25T15:24:17.500Z,1.80
2023-04-25T15:26:46.338Z,1.60
2023-04-25T15:29:14.062Z,1.20
2023-04-25T15:31:41.884Z,1.70
2023-04-25T15:34:09.677Z,1.60
2023-04-25T15:36:37.474Z,1.90
2023-04-25T15:39:05.274Z,1.40
2023-04-25T15:41:34.369Z,1.53
2023-04-25T15:44:02.501Z,1.83
2023-04-25T15:46:32.006Z,2.20
2023-04-25T15:48:59.860Z,1.80
2023-04-25T15:51:28.142Z,1.77
2023-04-25T15:53:56.307Z,1.63
2023-04-25T15:56:24.515Z,2.50
2023-04-25T15:58:55.157Z,3.17
2023-04-25T16:01:24.447Z,1.83
2023-04-25T16:03:53.561Z,1.83
2023-04-25T16:06:22.210Z,1.53
2023-04-25T16:08:49.912Z,1.70
2023-04-25T16:11:17.655Z,2.10
2023-04-25T16:13:45.745Z,5.27
2023-04-25T16:16:15.926Z,1.77
2023-04-25T16:18:43.704Z,1.70
2023-04-25T16:21:17.100Z,1.83
2023-04-25T16:23:45.199Z,2.97
2023-04-25T16:26:12.999Z,2.00
2023-04-25T16:28:40.791Z,2.23
2023-04-25T16:31:08.823Z,2.00
2023-04-25T16:33:37.900Z,2.00
2023-04-25T16:36:06.752Z,2.30
2023-04-25T16:38:34.583Z,7.00
2023-04-25T16:41:02.496Z,17.63
2023-04-25T16:43:30.263Z,3.93
2023-04-25T16:45:58.032Z,5.23
2023-04-25T16:48:26.005Z,7.07
2023-04-25T16:50:55.108Z,4.00
2023-04-25T16:53:23.187Z,1.77
2023-04-25T16:55:51.018Z,2.00
2023-04-25T16:58:18.740Z,3.63
2023-04-25T17:00:47.678Z,1.90
2023-04-25T17:03:16.042Z,5.97
2023-04-25T17:05:43.966Z,2.30
2023-04-25T17:08:13.034Z,2.57
2023-04-25T17:10:40.764Z,3.47
2023-04-25T17:13:08.573Z,2.43
2023-04-25T17:15:36.423Z,1.92
2023-04-25T17:18:04.344Z,2.03
2023-04-25T17:20:32.690Z,2.30
2023-04-25T17:23:01.139Z,2.20
2023-04-25T17:25:30.250Z,1.87
2023-04-25T17:27:57.974Z,2.40
2023-04-25T17:30:26.823Z,1.90
2023-04-25T17:32:54.727Z,2.80
2023-04-25T17:35:23.174Z,2.10
2023-04-25T17:37:51.477Z,2.40
2023-04-25T17:40:19.966Z,2.80
2023-04-25T17:42:49.074Z,2.43
2023-04-25T17:45:17.410Z,2.07
2023-04-25T17:47:45.348Z,3.90
2023-04-25T17:50:13.467Z,7.03
2023-04-25T17:52:41.331Z,7.53
2023-04-25T17:55:09.863Z,4.10
2023-04-25T17:57:37.703Z,2.87
2023-04-25T18:00:09.133Z,5.33
2023-04-25T18:02:37.223Z,3.60
2023-04-25T18:05:09.446Z,4.43
2023-04-25T18:07:37.824Z,3.53
2023-04-25T18:10:06.751Z,5.80
2023-04-25T18:12:35.005Z,7.35
2023-04-25T18:15:05.802Z,8.23
2023-04-25T18:17:39.833Z,2.07
2023-04-25T18:20:11.766Z,6.73
2023-04-25T18:22:39.624Z,2.40
2023-04-25T18:25:09.962Z,6.30
2023-04-25T18:27:38.368Z,5.97
2023-04-25T18:30:08.751Z,4.07
2023-04-25T18:32:38.225Z,4.50
2023-04-25T18:35:07.194Z,5.33
2023-04-25T18:37:34.891Z,13.07
2023-04-25T18:40:06.225Z,5.23
2023-04-25T18:42:34.259Z,1.77
2023-04-25T18:45:02.096Z,2.20
2023-04-25T18:47:30.251Z,4.07
2023-04-25T18:49:59.295Z,2.33
2023-04-25T18:52:27.128Z,1.60
2023-04-25T18:54:54.933Z,1.97
2023-04-25T18:57:22.751Z,1.43
2023-04-25T18:59:50.449Z,2.03
2023-04-25T19:02:19.008Z,1.80
2023-04-25T19:04:47.340Z,3.13
2023-04-25T19:07:17.141Z,1.80
2023-04-25T19:09:44.946Z,2.70
2023-04-25T19:12:12.714Z,2.23
2023-04-25T19:14:40.562Z,2.00
2023-04-25T19:17:08.527Z,2.30
2023-04-25T19:19:36.346Z,1.80
2023-04-25T19:22:04.110Z,2.07
2023-04-25T19:24:34.468Z,1.90
2023-04-25T19:27:02.836Z,2.07
2023-04-25T19:29:32.505Z,2.47
2023-04-25T19:32:02.940Z,2.00
2023-04-25T19:34:30.649Z,1.93
2023-04-25T19:36:58.433Z,2.40
2023-04-25T19:39:26.225Z,2.40
2023-04-25T19:41:56.588Z,2.03
2023-04-25T19:44:24.579Z,2.00
2023-04-25T19:46:52.360Z,2.10
2023-04-25T19:49:21.222Z,2.20
2023-04-25T19:51:49.029Z,2.20
2023-04-25T19:54:16.796Z,2.10
2023-04-25T19:56:44.655Z,1.87
2023-04-25T19:59:13.685Z,2.90
2023-04-25T20:01:41.658Z,2.37
2023-04-25T20:04:09.464Z,2.33
2023-04-25T20:06:37.167Z,1.80
2023-04-25T20:09:06.252Z,1.80
2023-04-25T20:11:34.144Z,2.13
2023-04-25T20:14:02.007Z,2.90
2023-04-25T20:16:31.212Z,2.07
2023-04-25T20:18:59.081Z,2.40
2023-04-25T20:21:27.388Z,1.93
2023-04-25T20:23:55.383Z,2.07
2023-04-25T20:26:23.640Z,2.40
2023-04-25T20:28:51.749Z,2.47
2023-04-25T20:31:19.810Z,2.53
2023-04-25T20:33:49.191Z,2.00
2023-04-25T20:36:16.904Z,2.77
2023-04-25T20:38:44.644Z,2.27
2023-04-25T20:41:13.027Z,2.20
2023-04-25T20:43:42.190Z,2.30
2023-04-25T20:46:10.328Z,2.20
2023-04-25T20:48:38.135Z,2.57
2023-04-25T20:51:07.623Z,2.40
2023-04-25T20:53:35.734Z,2.70
2023-04-25T20:56:04.540Z,2.30
2023-04-25T20:58:32.331Z,2.53
2023-04-25T21:01:01.296Z,2.03
2023-04-25T21:03:30.141Z,1.97
2023-04-25T21:05:58.644Z,2.40
2023-04-25T21:08:28.009Z,2.17
2023-04-25T21:10:55.894Z,2.07
2023-04-25T21:13:23.641Z,2.07
2023-04-25T21:15:51.566Z,1.90
2023-04-25T21:18:19.287Z,2.23
2023-04-25T21:20:47.081Z,2.53
2023-04-25T21:23:15.582Z,2.20
2023-04-25T21:25:44.848Z,1.87
2023-04-25T21:28:12.964Z,2.70
2023-04-25T21:30:40.924Z,2.37
2023-04-25T21:33:08.719Z,2.53
2023-04-25T21:35:37.028Z,3.00
2023-04-25T21:38:04.774Z,1.97
2023-04-25T21:40:32.625Z,2.27
2023-04-25T21:43:01.894Z,2.20
2023-04-25T21:45:30.888Z,2.27
2023-04-25T21:47:59.020Z,2.50
2023-04-25T21:50:26.864Z,2.27
2023-04-25T21:52:58.752Z,2.80
2023-04-25T21:55:27.001Z,2.40
2023-04-25T21:57:54.781Z,2.47
2023-04-25T22:00:27.621Z,2.40
2023-04-25T22:02:56.438Z,2.40
2023-04-25T22:05:26.504Z,2.27
2023-04-25T22:07:56.936Z,2.13
2023-04-25T22:10:25.213Z,2.10
2023-04-25T22:12:53.161Z,2.23
2023-04-25T22:15:23.539Z,2.47
2023-04-25T22:17:54.997Z,2.27
2023-04-25T22:20:26.041Z,2.60
2023-04-25T22:22:55.497Z,1.87
2023-04-25T22:25:23.823Z,2.80
2023-04-25T22:27:52.127Z,2.20
2023-04-25T22:30:19.890Z,2.47
2023-04-25T22:32:47.768Z,1.90
2023-04-25T22:35:17.339Z,2.17
2023-04-25T22:37:45.154Z,2.70
2023-04-25T22:40:13.994Z,2.30
2023-04-25T22:42:43.222Z,2.00
2023-04-25T22:45:12.223Z,2.20
2023-04-25T22:47:40.839Z,2.80
2023-04-25T22:50:13.340Z,2.83
2023-04-25T22:52:43.028Z,2.80
2023-04-25T22:55:11.983Z,2.93
2023-04-25T22:57:40.156Z,2.87
2023-04-25T23:00:16.680Z,3.00
2023-04-25T23:02:46.509Z,2.23
2023-04-25T23:05:15.522Z,2.60
2023-04-25T23:07:45.519Z,2.90
2023-04-25T23:10:14.059Z,2.80
2023-04-25T23:12:42.239Z,2.40
2023-04-25T23:15:12.284Z,2.20
2023-04-25T23:17:40.296Z,2.40
2023-04-25T23:20:10.631Z,2.50
2023-04-25T23:22:38.911Z,2.87
2023-04-25T23:25:09.859Z,2.33
2023-04-25T23:27:38.071Z,2.10
2023-04-25T23:30:06.881Z,2.50
2023-04-25T23:32:34.678Z,2.50
2023-04-25T23:35:02.515Z,2.30
2023-04-25T23:37:31.757Z,2.40
2023-04-25T23:39:59.481Z,2.73
2023-04-25T23:42:28.549Z,2.37
2023-04-25T23:44:56.286Z,2.13
2023-04-25T23:47:24.085Z,2.40
2023-04-25T23:49:51.848Z,2.50
2023-04-25T23:52:19.681Z,2.60
2023-04-25T23:54:47.387Z,2.93
2023-04-25T23:57:16.631Z,2.87
2023-04-25T23:59:45.927Z,2.43
